createdAt,value
2023-02-03T00:00:55.379Z,3.67
2023-02-03T00:03:23.641Z,4.43
2023-02-03T00:05:52.026Z,4.15
2023-02-03T00:08:21.061Z,4.45
2023-02-03T00:10:51.235Z,4.68
2023-02-03T00:13:19.457Z,4.28
2023-02-03T00:15:47.804Z,5.00
2023-02-03T00:18:17.380Z,4.85
2023-02-03T00:20:45.734Z,5.38
2023-02-03T00:23:14.460Z,4.28
2023-02-03T00:25:42.643Z,5.32
2023-02-03T00:28:10.962Z,4.43
2023-02-03T00:30:39.236Z,4.97
2023-02-03T00:33:07.441Z,4.47
2023-02-03T00:35:39.482Z,5.00
2023-02-03T00:38:07.886Z,5.05
2023-02-03T00:40:36.085Z,5.53
2023-02-03T00:43:04.279Z,6.88
2023-02-03T00:45:33.521Z,6.00
2023-02-03T00:48:01.791Z,5.70
2023-02-03T00:50:29.946Z,5.20
2023-02-03T00:53:00.254Z,6.15
2023-02-03T00:55:28.407Z,5.35
2023-02-03T00:57:56.636Z,5.78
2023-02-03T01:00:25.187Z,5.93
2023-02-03T01:02:53.503Z,5.05
2023-02-03T01:05:21.644Z,5.10
2023-02-03T01:07:49.929Z,5.20
2023-02-03T01:10:19.717Z,5.65
2023-02-03T01:12:48.091Z,5.10
2023-02-03T01:15:16.348Z,4.75
2023-02-03T01:17:44.560Z,6.00
2023-02-03T01:20:13.952Z,5.18
2023-02-03T01:22:42.158Z,4.88
2023-02-03T01:25:10.759Z,4.57
2023-02-03T01:27:40.561Z,4.05
2023-02-03T01:30:09.499Z,3.67
2023-02-03T01:32:37.692Z,3.88
2023-02-03T01:35:06.417Z,3.30
2023-02-03T01:37:34.603Z,3.75
2023-02-03T01:40:02.795Z,4.45
2023-02-03T01:42:33.777Z,4.47
2023-02-03T01:45:03.339Z,3.30
2023-02-03T01:47:35.778Z,3.22
2023-02-03T01:50:11.634Z,3.38
2023-02-03T01:52:42.317Z,3.20
2023-02-03T01:55:13.910Z,3.08
2023-02-03T01:57:47.623Z,2.90
2023-02-03T02:00:18.062Z,2.67
2023-02-03T02:02:48.909Z,2.95
2023-02-03T02:05:23.752Z,2.40
2023-02-03T02:07:52.648Z,2.60
2023-02-03T02:10:21.349Z,3.40
2023-02-03T02:12:49.893Z,3.33
2023-02-03T02:15:24.597Z,2.95
2023-02-03T02:18:09.716Z,3.70
2023-02-03T02:20:59.781Z,3.00
2023-02-03T02:23:56.674Z,2.70
2023-02-03T02:26:52.482Z,3.30
2023-02-03T02:30:05.520Z,3.00
2023-02-03T02:32:53.818Z,3.90
2023-02-03T02:35:33.602Z,3.90
2023-02-03T02:38:06.609Z,3.58
2023-02-03T02:40:43.425Z,4.10
2023-02-03T02:43:18.985Z,4.38
2023-02-03T02:45:50.540Z,4.20
2023-02-03T02:48:28.213Z,3.70
2023-02-03T02:50:59.171Z,3.65
2023-02-03T02:53:33.502Z,3.88
2023-02-03T02:56:04.962Z,4.70
2023-02-03T02:58:36.185Z,4.90
2023-02-03T03:01:04.991Z,3.70
2023-02-03T03:03:34.577Z,3.50
2023-02-03T03:06:04.945Z,4.28
2023-02-03T03:08:41.881Z,3.90
2023-02-03T03:11:12.432Z,4.90
2023-02-03T03:13:47.075Z,4.13
2023-02-03T03:16:16.950Z,3.20
2023-02-03T03:18:50.271Z,3.80
2023-02-03T03:21:23.806Z,3.95
2023-02-03T03:23:54.326Z,3.60
2023-02-03T03:26:29.806Z,4.10
2023-02-03T03:29:07.866Z,4.20
2023-02-03T03:31:36.364Z,3.90
2023-02-03T03:34:06.531Z,3.42
2023-02-03T03:36:42.272Z,4.05
2023-02-03T03:39:16.579Z,4.10
2023-02-03T03:41:51.449Z,3.13
2023-02-03T03:44:21.831Z,4.00
2023-02-03T03:46:55.551Z,3.50
2023-02-03T03:49:26.671Z,2.80
2023-02-03T03:51:59.857Z,3.42
2023-02-03T03:54:31.430Z,3.45
2023-02-03T03:57:02.710Z,3.30
2023-02-03T03:59:35.779Z,3.00
2023-02-03T04:02:05.550Z,3.35
2023-02-03T04:04:37.702Z,3.70
2023-02-03T04:07:05.997Z,2.95
2023-02-03T04:09:36.641Z,3.80
2023-02-03T04:12:06.591Z,3.58
2023-02-03T04:14:38.679Z,3.85
2023-02-03T04:17:07.506Z,3.30
2023-02-03T04:19:37.020Z,4.00
2023-02-03T04:22:06.697Z,4.05
2023-02-03T04:24:34.862Z,3.72
2023-02-03T04:27:05.158Z,3.42
2023-02-03T04:29:33.683Z,4.00
2023-02-03T04:32:02.091Z,3.90
2023-02-03T04:34:30.316Z,3.30
2023-02-03T04:36:59.956Z,4.15
2023-02-03T04:39:28.112Z,4.28
2023-02-03T04:41:56.297Z,5.07
2023-02-03T04:44:24.446Z,4.60
2023-02-03T04:46:52.890Z,4.85
2023-02-03T04:49:21.197Z,4.13
2023-02-03T04:51:50.275Z,3.63
2023-02-03T04:54:19.804Z,5.95
2023-02-03T04:56:47.990Z,5.22
2023-02-03T04:59:16.146Z,4.20
2023-02-03T05:01:44.407Z,4.50
2023-02-03T05:04:12.571Z,4.50
2023-02-03T05:06:40.821Z,4.93
2023-02-03T05:09:09.079Z,4.70
2023-02-03T05:11:38.581Z,5.05
2023-02-03T05:14:06.938Z,4.50
2023-02-03T05:16:35.184Z,4.45
2023-02-03T05:19:03.589Z,4.95
2023-02-03T05:21:31.897Z,4.75
2023-02-03T05:24:00.382Z,5.45
2023-02-03T05:26:28.486Z,5.13
2023-02-03T05:28:58.049Z,4.95
2023-02-03T05:31:26.411Z,3.92
2023-02-03T05:33:54.630Z,4.80
2023-02-03T05:36:22.753Z,4.75
2023-02-03T05:38:50.961Z,5.70
2023-02-03T05:41:36.212Z,5.57
2023-02-03T05:44:06.039Z,5.00
2023-02-03T05:46:34.192Z,5.15
2023-02-03T05:49:02.353Z,6.25
2023-02-03T05:51:30.527Z,4.47
2023-02-03T05:53:58.677Z,5.63
2023-02-03T05:56:26.942Z,5.18
2023-02-03T05:58:55.243Z,5.78
2023-02-03T06:01:24.790Z,5.55
2023-02-03T06:03:53.042Z,5.00
2023-02-03T06:06:21.347Z,5.45
2023-02-03T06:08:51.150Z,4.85
2023-02-03T06:11:19.670Z,4.90
2023-02-03T06:13:48.687Z,4.45
2023-02-03T06:16:16.945Z,5.68
2023-02-03T06:18:46.497Z,4.90
2023-02-03T06:21:15.095Z,5.03
2023-02-03T06:23:43.438Z,5.65
2023-02-03T06:26:11.706Z,5.10
2023-02-03T06:28:39.824Z,5.53
2023-02-03T06:31:08.211Z,5.25
2023-02-03T06:33:36.924Z,5.30
2023-02-03T06:36:07.376Z,4.60
2023-02-03T06:38:35.516Z,4.53
2023-02-03T06:41:03.788Z,4.43
2023-02-03T06:43:31.908Z,4.82
2023-02-03T06:46:00.166Z,4.90
2023-02-03T06:48:28.310Z,4.70
2023-02-03T06:50:56.692Z,5.10
2023-02-03T06:53:26.197Z,4.85
2023-02-03T06:55:54.506Z,5.25
2023-02-03T06:58:22.808Z,4.88
2023-02-03T07:00:51.493Z,7.47
2023-02-03T07:03:19.706Z,9.65
2023-02-03T07:05:47.978Z,5.72
2023-02-03T07:08:16.100Z,5.28
2023-02-03T07:10:45.641Z,5.30
2023-02-03T07:13:13.928Z,4.75
2023-02-03T07:15:42.171Z,5.70
2023-02-03T07:18:10.819Z,4.28
2023-02-03T07:20:39.991Z,5.22
2023-02-03T07:23:08.131Z,4.85
2023-02-03T07:25:36.331Z,5.20
2023-02-03T07:28:06.149Z,4.85
2023-02-03T07:30:34.399Z,4.63
2023-02-03T07:33:02.867Z,4.00
2023-02-03T07:35:31.060Z,4.15
2023-02-03T07:37:59.240Z,4.18
2023-02-03T07:40:27.687Z,3.78
2023-02-03T07:42:55.944Z,4.10
2023-02-03T07:45:25.807Z,5.03
2023-02-03T07:47:54.003Z,4.40
2023-02-03T07:50:22.273Z,3.65
2023-02-03T07:52:51.851Z,3.92
2023-02-03T07:55:20.234Z,4.32
2023-02-03T07:57:48.837Z,3.22
2023-02-03T08:00:18.390Z,3.70
2023-02-03T08:02:48.038Z,4.05
2023-02-03T08:05:17.228Z,3.45
2023-02-03T08:07:46.314Z,4.03
2023-02-03T08:10:17.075Z,3.95
2023-02-03T08:12:46.899Z,3.50
2023-02-03T08:15:17.312Z,3.58
2023-02-03T08:17:47.089Z,3.10
2023-02-03T08:20:15.521Z,3.50
2023-02-03T08:22:43.698Z,3.30
2023-02-03T08:25:12.763Z,2.58
2023-02-03T08:27:41.399Z,3.75
2023-02-03T08:30:13.433Z,3.63
2023-02-03T08:32:41.828Z,4.32
2023-02-03T08:35:11.652Z,5.00
2023-02-03T08:37:40.088Z,3.47
2023-02-03T08:40:09.065Z,3.75
2023-02-03T08:42:37.581Z,3.53
2023-02-03T08:45:06.584Z,3.20
2023-02-03T08:47:36.879Z,2.90
2023-02-03T08:50:06.350Z,4.00
2023-02-03T08:52:36.397Z,3.15
2023-02-03T08:55:04.796Z,3.72
2023-02-03T08:57:35.117Z,3.05
2023-02-03T09:00:04.316Z,2.92
2023-02-03T09:02:32.546Z,3.05
2023-02-03T09:05:00.843Z,3.38
2023-02-03T09:07:29.122Z,3.13
2023-02-03T09:09:58.781Z,2.97
2023-02-03T09:12:27.003Z,3.78
2023-02-03T09:14:55.172Z,3.25
2023-02-03T09:17:23.334Z,2.65
2023-02-03T09:19:51.602Z,3.25
2023-02-03T09:22:19.843Z,3.33
2023-02-03T09:24:50.666Z,3.72
2023-02-03T09:27:20.247Z,2.72
2023-02-03T09:29:48.449Z,2.88
2023-02-03T09:32:16.559Z,2.58
2023-02-03T09:34:44.820Z,2.60
2023-02-03T09:37:13.051Z,2.80
2023-02-03T09:39:41.268Z,2.63
2023-02-03T09:42:40.630Z,2.58
2023-02-03T09:45:19.461Z,2.50
2023-02-03T09:47:54.040Z,2.97
2023-02-03T09:50:25.374Z,2.40
2023-02-03T09:52:54.276Z,2.58
2023-02-03T09:55:29.146Z,2.85
2023-02-03T09:58:05.246Z,2.35
2023-02-03T10:00:37.178Z,2.65
2023-02-03T10:03:12.417Z,2.67
2023-02-03T10:06:01.982Z,2.58
2023-02-03T10:08:45.016Z,2.65
2023-02-03T10:11:23.128Z,3.03
2023-02-03T10:14:04.476Z,3.00
2023-02-03T10:16:47.761Z,2.70
2023-02-03T10:19:21.421Z,2.70
2023-02-03T10:21:55.319Z,3.25
2023-02-03T10:24:31.983Z,2.90
2023-02-03T10:27:00.249Z,2.75
2023-02-03T10:29:36.365Z,3.17
2023-02-03T10:32:06.994Z,2.92
2023-02-03T10:34:35.520Z,2.95
2023-02-03T10:37:10.372Z,2.83
2023-02-03T10:39:42.950Z,2.47
2023-02-03T10:42:13.624Z,3.35
2023-02-03T10:44:47.204Z,3.15
2023-02-03T10:47:25.574Z,3.30
2023-02-03T10:49:56.397Z,3.25
2023-02-03T10:52:30.960Z,2.60
2023-02-03T10:55:00.480Z,3.38
2023-02-03T10:57:30.668Z,2.58
2023-02-03T11:00:10.154Z,2.92
2023-02-03T11:02:38.436Z,2.90
2023-02-03T11:05:12.654Z,2.40
2023-02-03T11:07:40.903Z,2.60
2023-02-03T11:10:31.244Z,2.80
2023-02-03T11:13:19.479Z,2.72
2023-02-03T11:15:58.820Z,4.20
2023-02-03T11:18:36.061Z,3.00
2023-02-03T11:21:09.180Z,2.70
2023-02-03T11:23:38.806Z,2.25
2023-02-03T11:26:16.297Z,2.53
2023-02-03T11:28:47.753Z,3.03
2023-02-03T11:31:24.723Z,2.70
2023-02-03T11:33:57.642Z,2.60
2023-02-03T11:36:30.397Z,3.10
2023-02-03T11:39:11.985Z,3.55
2023-02-03T11:41:41.815Z,3.75
2023-02-03T11:44:17.598Z,4.03
2023-02-03T11:46:49.893Z,2.90
2023-02-03T11:49:50.214Z,2.45
2023-02-03T11:52:47.977Z,3.35
2023-02-03T11:55:32.754Z,2.65
2023-02-03T11:58:18.018Z,4.45
2023-02-03T12:00:55.989Z,2.92
2023-02-03T12:03:52.721Z,4.85
2023-02-03T12:06:40.344Z,3.33
2023-02-03T12:09:24.173Z,3.38
2023-02-03T12:12:18.105Z,2.92
2023-02-03T12:14:56.310Z,2.65
2023-02-03T12:17:45.874Z,2.20
2023-02-03T12:20:32.984Z,2.22
2023-02-03T12:23:13.028Z,2.75
2023-02-03T12:25:56.148Z,2.58
2023-02-03T12:28:42.622Z,2.45
2023-02-03T12:31:17.001Z,2.00
2023-02-03T12:33:51.203Z,2.22
2023-02-03T12:36:26.819Z,1.90
2023-02-03T12:39:02.737Z,2.40
2023-02-03T12:41:36.258Z,2.30
2023-02-03T12:44:09.820Z,2.30
2023-02-03T12:46:45.344Z,3.10
2023-02-03T12:49:22.099Z,2.50
2023-02-03T12:51:56.573Z,2.45
2023-02-03T12:54:36.176Z,2.45
2023-02-03T12:57:18.274Z,2.50
2023-02-03T13:00:01.443Z,2.90
2023-02-03T13:02:36.164Z,4.90
2023-02-03T13:05:12.650Z,2.15
2023-02-03T13:07:50.223Z,2.50
2023-02-03T13:10:24.211Z,2.90
2023-02-03T13:12:57.476Z,3.08
2023-02-03T13:15:29.947Z,3.00
2023-02-03T13:18:04.436Z,2.22
2023-02-03T13:20:36.191Z,4.78
2023-02-03T13:23:10.697Z,2.58
2023-02-03T13:25:49.862Z,2.72
2023-02-03T13:28:31.000Z,3.65
2023-02-03T13:31:26.077Z,3.47
2023-02-03T13:34:19.487Z,3.78
2023-02-03T13:37:13.782Z,3.63
2023-02-03T13:39:54.494Z,2.65
2023-02-03T13:42:27.767Z,2.90
2023-02-03T13:45:00.026Z,3.17
2023-02-03T13:47:31.007Z,2.58
2023-02-03T13:50:02.950Z,3.28
2023-02-03T13:52:36.332Z,3.90
2023-02-03T13:55:07.194Z,4.47
2023-02-03T13:57:38.123Z,4.40
2023-02-03T14:00:28.952Z,4.65
2023-02-03T14:02:57.591Z,4.40
2023-02-03T14:05:44.939Z,2.97
2023-02-03T14:08:55.321Z,3.58
2023-02-03T14:11:46.087Z,4.10
2023-02-03T14:14:43.901Z,3.20
2023-02-03T14:18:08.841Z,3.38
2023-02-03T14:21:21.081Z,3.30
2023-02-03T14:23:58.535Z,3.80
2023-02-03T14:26:41.379Z,3.90
2023-02-03T14:29:25.592Z,3.13
2023-02-03T14:31:57.927Z,3.40
2023-02-03T14:34:38.840Z,4.00
2023-02-03T14:37:18.336Z,4.50
2023-02-03T14:40:32.272Z,4.60
2023-02-03T14:43:34.863Z,4.20
2023-02-03T14:46:23.165Z,5.07
2023-02-03T14:49:05.887Z,4.80
2023-02-03T14:51:52.369Z,4.60
2023-02-03T14:54:36.766Z,4.93
2023-02-03T14:57:19.874Z,6.97
2023-02-03T14:59:51.048Z,4.68
2023-02-03T15:02:23.384Z,3.40
2023-02-03T15:04:52.159Z,3.22
2023-02-03T15:07:37.360Z,3.45
2023-02-03T15:10:14.545Z,3.13
2023-02-03T15:12:46.958Z,2.92
2023-02-03T15:15:26.750Z,3.85
2023-02-03T15:17:59.554Z,4.32
2023-02-03T15:20:33.833Z,6.03
2023-02-03T15:23:02.661Z,4.93
2023-02-03T15:25:33.070Z,4.10
2023-02-03T15:28:17.035Z,3.90
2023-02-03T15:30:45.923Z,4.07
2023-02-03T15:33:21.136Z,4.72
2023-02-03T15:35:52.697Z,5.28
2023-02-03T15:38:27.199Z,5.00
2023-02-03T15:40:58.789Z,6.28
2023-02-03T15:43:32.556Z,4.60
2023-02-03T15:46:08.872Z,4.95
2023-02-03T15:48:43.964Z,5.03
2023-02-03T15:51:16.549Z,6.68
2023-02-03T15:53:54.737Z,6.05
2023-02-03T15:56:27.652Z,5.40
2023-02-03T15:58:58.822Z,6.85
2023-02-03T16:01:28.267Z,5.57
2023-02-03T16:04:00.204Z,4.72
2023-02-03T16:06:35.857Z,3.75
2023-02-03T16:09:06.932Z,4.55
2023-02-03T16:11:36.964Z,3.47
2023-02-03T16:14:07.842Z,4.78
2023-02-03T16:16:39.981Z,4.10
2023-02-03T16:19:16.094Z,3.20
2023-02-03T16:21:54.849Z,3.75
2023-02-03T16:24:38.664Z,3.92
2023-02-03T16:27:37.206Z,5.57
2023-02-03T16:30:40.984Z,5.18
2023-02-03T16:33:33.636Z,4.28
2023-02-03T16:36:29.374Z,3.50
2023-02-03T16:39:16.625Z,6.78
2023-02-03T16:42:02.132Z,5.32
2023-02-03T16:44:47.749Z,3.88
2023-02-03T16:47:41.842Z,5.65
2023-02-03T16:50:38.296Z,5.68
2023-02-03T16:53:15.075Z,6.03
2023-02-03T16:55:43.505Z,5.10
2023-02-03T16:58:12.749Z,5.40
2023-02-03T17:00:42.094Z,4.40
2023-02-03T17:03:13.035Z,4.55
2023-02-03T17:05:43.256Z,3.75
2023-02-03T17:08:13.556Z,4.40
2023-02-03T17:10:43.504Z,4.50
2023-02-03T17:13:12.668Z,4.78
2023-02-03T17:15:42.718Z,4.50
2023-02-03T17:18:11.349Z,4.30
2023-02-03T17:20:40.193Z,4.78
2023-02-03T17:23:08.554Z,5.30
2023-02-03T17:25:39.190Z,6.55
2023-02-03T17:28:09.649Z,8.85
2023-02-03T17:30:37.909Z,8.25
2023-02-03T17:33:11.998Z,8.90
2023-02-03T17:35:41.997Z,8.77
2023-02-03T17:38:10.824Z,8.75
2023-02-03T17:54:35.775Z,10.75
2023-02-03T17:57:05.742Z,9.60
2023-02-03T17:59:35.556Z,9.45
2023-02-03T18:02:03.920Z,8.60
2023-02-03T18:04:32.636Z,9.25
2023-02-03T18:07:00.782Z,12.05
2023-02-03T18:09:28.929Z,10.90
2023-02-03T18:11:57.194Z,9.50
2023-02-03T18:14:27.221Z,9.32
2023-02-03T18:16:55.373Z,11.68
2023-02-03T18:19:23.498Z,10.05
2023-02-03T18:21:51.642Z,10.55
2023-02-03T18:24:22.470Z,9.50
2023-02-03T18:26:53.021Z,11.65
2023-02-03T18:29:21.983Z,11.90
2023-02-03T18:31:52.078Z,10.07
2023-02-03T18:34:20.308Z,10.23
2023-02-03T18:36:48.556Z,10.50
2023-02-03T18:39:17.919Z,12.50
2023-02-03T18:41:46.262Z,13.13
2023-02-03T18:44:14.440Z,12.30
2023-02-03T18:46:42.646Z,12.07
2023-02-03T18:49:13.037Z,11.55
2023-02-03T18:51:41.749Z,8.50
2023-02-03T18:54:09.932Z,10.25
2023-02-03T18:56:38.641Z,9.48
2023-02-03T18:59:08.555Z,9.18
2023-02-03T19:01:38.885Z,10.05
2023-02-03T19:04:07.650Z,9.05
2023-02-03T19:06:37.433Z,7.90
2023-02-03T19:09:06.586Z,10.15
2023-02-03T19:11:35.237Z,10.02
2023-02-03T19:14:03.587Z,9.82
2023-02-03T19:16:31.962Z,8.73
2023-02-03T19:19:00.099Z,9.95
2023-02-03T19:21:28.294Z,8.60
2023-02-03T19:23:57.953Z,14.98
2023-02-03T19:26:27.740Z,9.10
2023-02-03T19:28:56.609Z,10.38
2023-02-03T19:31:24.984Z,9.70
2023-02-03T19:33:53.298Z,8.45
2023-02-03T19:36:21.440Z,10.68
2023-02-03T19:38:49.737Z,19.20
2023-02-03T19:41:19.765Z,8.73
2023-02-03T19:43:48.528Z,10.90
2023-02-03T19:46:16.697Z,11.45
2023-02-03T19:48:44.969Z,9.23
2023-02-03T19:51:13.913Z,8.90
2023-02-03T19:53:42.203Z,10.60
2023-02-03T19:56:10.402Z,12.82
2023-02-03T19:58:40.180Z,13.25
2023-02-03T20:01:10.182Z,12.65
2023-02-03T20:03:38.375Z,15.77
2023-02-03T20:06:09.088Z,19.65
2023-02-03T20:08:37.485Z,10.10
2023-02-03T20:11:05.985Z,8.57
2023-02-03T20:13:34.329Z,9.52
2023-02-03T20:16:03.933Z,11.27
2023-02-03T20:18:32.192Z,11.20
2023-02-03T20:21:00.594Z,8.15
2023-02-03T20:23:28.898Z,7.72
2023-02-03T20:25:57.204Z,8.27
2023-02-03T20:28:28.366Z,8.85
2023-02-03T20:30:58.963Z,8.07
2023-02-03T20:33:30.958Z,10.23
2023-02-03T20:35:59.399Z,7.43
2023-02-03T20:38:28.497Z,9.90
2023-02-03T20:40:57.352Z,8.80
2023-02-03T20:43:27.787Z,11.48
2023-02-03T20:45:56.289Z,10.40
2023-02-03T20:48:25.676Z,6.95
2023-02-03T20:50:55.448Z,7.85
2023-02-03T20:53:25.468Z,5.60
2023-02-03T20:55:58.169Z,7.85
2023-02-03T20:58:28.548Z,6.10
2023-02-03T21:00:57.761Z,6.65
2023-02-03T21:03:44.796Z,6.80
2023-02-03T21:06:16.477Z,7.88
2023-02-03T21:08:45.040Z,8.70
2023-02-03T21:11:15.670Z,7.80
2023-02-03T21:13:45.493Z,12.88
2023-02-03T21:16:18.009Z,8.43
2023-02-03T21:18:52.077Z,7.80
2023-02-03T21:21:29.020Z,8.23
2023-02-03T21:23:57.251Z,7.80
2023-02-03T21:26:26.978Z,8.15
2023-02-03T21:28:56.999Z,8.90
2023-02-03T21:31:27.802Z,8.25
2023-02-03T21:33:57.371Z,9.63
2023-02-03T21:36:29.059Z,6.90
2023-02-03T21:39:00.741Z,6.45
2023-02-03T21:41:33.637Z,9.07
2023-02-03T21:44:02.668Z,7.22
2023-02-03T21:46:33.938Z,9.30
2023-02-03T21:49:03.328Z,5.90
2023-02-03T21:51:36.026Z,6.85
2023-02-03T21:54:19.371Z,6.47
2023-02-03T21:56:47.554Z,5.85
2023-02-03T21:59:17.722Z,6.18
2023-02-03T22:01:46.118Z,4.72
2023-02-03T22:04:14.505Z,3.95
2023-02-03T22:06:46.887Z,3.63
2023-02-03T22:09:17.197Z,4.60
2023-02-03T22:11:45.757Z,3.55
2023-02-03T22:14:14.645Z,4.97
2023-02-03T22:16:43.162Z,3.70
2023-02-03T22:19:12.118Z,4.40
2023-02-03T22:21:40.586Z,4.00
2023-02-03T22:24:10.272Z,4.65
2023-02-03T22:26:38.431Z,6.22
2023-02-03T22:29:06.765Z,4.53
2023-02-03T22:31:35.071Z,6.63
2023-02-03T22:34:03.360Z,4.80
2023-02-03T22:36:31.559Z,4.90
2023-02-03T22:38:59.902Z,5.53
2023-02-03T22:41:29.482Z,5.32
2023-02-03T22:43:57.649Z,6.32
2023-02-03T22:46:26.034Z,5.50
2023-02-03T22:48:54.300Z,7.25
2023-02-03T22:51:22.459Z,6.60
2023-02-03T22:53:50.626Z,6.30
2023-02-03T22:56:18.788Z,6.30
2023-02-03T22:58:48.429Z,7.80
2023-02-03T23:01:16.655Z,6.97
2023-02-03T23:03:44.857Z,5.57
2023-02-03T23:06:13.480Z,6.35
2023-02-03T23:08:41.761Z,6.07
2023-02-03T23:11:09.941Z,6.30
2023-02-03T23:13:38.244Z,6.00
2023-02-03T23:16:08.415Z,6.22
2023-02-03T23:18:36.716Z,6.20
2023-02-03T23:21:05.164Z,5.97
2023-02-03T23:23:33.560Z,6.20
2023-02-03T23:26:01.716Z,6.70
2023-02-03T23:28:30.041Z,7.18
2023-02-03T23:30:58.419Z,6.60
2023-02-03T23:33:28.123Z,5.65
2023-02-03T23:35:55.631Z,6.90
2023-02-03T23:38:23.813Z,6.63
2023-02-03T23:40:54.155Z,5.80
2023-02-03T23:43:22.522Z,6.05
2023-02-03T23:45:50.650Z,6.05
2023-02-03T23:48:18.868Z,5.95
2023-02-03T23:50:49.197Z,7.03
2023-02-03T23:53:17.375Z,7.55
2023-02-03T23:55:45.668Z,5.97
2023-02-03T23:58:14.039Z,6.45
